Time;durP1;ratioP1;P1;durP2;ratioP2;P2;SDS_P1;SDS_P2;PMS_P1;PMS_P2;Temp;Humidity;BMP_temperature;BMP_pressure;BME280_temperature;BME280_humidity;BME280_pressure;Samples;Min_cycle;Max_cycle;Signal;HPM_P1;HPM_P2
2022/07/30 00:00:16;;;;;;;0.60;0.60;;;;;;;23.63;52.75;93389.53;6033139;23;20038;-95
2022/07/30 00:02:44;;;;;;;0.82;0.70;;;;;;;23.62;52.68;93397.06;6065246;23;20045;-94
2022/07/30 00:05:13;;;;;;;1.15;0.93;;;;;;;23.61;52.89;93390.06;6031901;23;20062;-96
2022/07/30 00:07:40;;;;;;;1.15;0.82;;;;;;;23.62;52.80;93385.28;6039078;23;20014;-94
2022/07/30 00:10:07;;;;;;;0.77;0.77;;;;;;;23.61;52.87;93383.81;6065826;23;20347;-96
2022/07/30 00:12:33;;;;;;;0.90;0.82;;;;;;;23.61;52.71;93381.06;6040291;23;20451;-94
2022/07/30 00:14:59;;;;;;;0.75;0.75;;;;;;;23.62;52.75;93383.28;6042686;23;20021;-95
2022/07/30 00:17:24;;;;;;;1.10;0.80;;;;;;;23.60;52.76;93376.84;6040328;23;20045;-95
2022/07/30 00:19:52;;;;;;;1.42;0.75;;;;;;;23.60;52.97;93369.28;6028944;23;20025;-94
2022/07/30 00:22:18;;;;;;;1.20;0.70;;;;;;;23.61;52.70;93370.03;6049526;23;20025;-95
2022/07/30 00:24:43;;;;;;;1.10;0.82;;;;;;;23.60;52.77;93366.53;6019207;23;20033;-95
2022/07/30 00:27:13;;;;;;;0.95;0.80;;;;;;;23.60;52.75;93363.75;6042332;23;20354;-95
2022/07/30 00:29:48;;;;;;;0.87;0.70;;;;;;;23.58;52.78;93367.09;6042247;23;20028;-96
2022/07/30 00:32:22;;;;;;;0.60;0.60;;;;;;;23.60;52.81;93358.25;6027261;23;20018;-96
2022/07/30 00:34:50;;;;;;;0.80;0.70;;;;;;;23.58;52.69;93367.09;6032474;23;20049;-94
2022/07/30 00:37:16;;;;;;;0.73;0.60;;;;;;;23.60;52.72;93361.00;6042565;23;20029;-94
2022/07/30 00:39:45;;;;;;;1.00;0.90;;;;;;;23.57;52.86;93362.84;6032193;23;20028;-96
2022/07/30 00:42:13;;;;;;;0.93;0.73;;;;;;;23.57;52.84;93362.84;6028681;23;20022;-95
2022/07/30 00:44:45;;;;;;;1.20;0.68;;;;;;;23.58;53.09;93366.34;6040481;23;20019;-95
2022/07/30 00:47:19;;;;;;;0.93;0.70;;;;;;;23.57;52.80;93357.34;6042743;23;20018;-95
2022/07/30 00:49:47;;;;;;;1.30;0.65;;;;;;;23.59;52.76;93351.28;6019320;23;20462;-94
2022/07/30 00:52:13;;;;;;;0.70;0.70;;;;;;;23.60;52.87;93354.78;6028699;23;20018;-95
2022/07/30 00:54:38;;;;;;;0.73;0.65;;;;;;;23.57;52.97;93353.84;6038355;23;20018;-95
2022/07/30 00:57:17;;;;;;;;;;;;;;;;;;;;;
2022/07/30 00:59:53;;;;;;;1.25;0.82;;;;;;;23.58;52.86;93355.31;6026097;23;20093;-95
2022/07/30 01:02:21;;;;;;;0.73;0.52;;;;;;;23.60;52.56;93335.47;6039484;23;20644;-95
2022/07/30 01:04:49;;;;;;;1.40;0.90;;;;;;;23.55;52.83;93351.63;6037449;23;20018;-94
2022/07/30 01:07:19;;;;;;;0.90;0.70;;;;;;;23.56;52.95;93350.34;6081403;23;20022;-95
2022/07/30 01:09:44;;;;;;;0.95;0.80;;;;;;;23.60;52.71;93346.50;6017191;23;20014;-94
2022/07/30 01:12:18;;;;;;;1.63;0.90;;;;;;;23.57;52.71;93346.31;6030563;23;20049;-96
2022/07/30 01:14:47;;;;;;;1.05;0.70;;;;;;;23.58;52.79;93341.53;6041090;23;20037;-94
2022/07/30 01:17:18;;;;;;;1.13;0.80;;;;;;;23.54;53.10;93352.91;6039099;23;20070;-95
2022/07/30 01:19:51;;;;;;;0.90;0.75;;;;;;;23.55;52.72;93348.88;6027930;23;20417;-94
2022/07/30 01:22:40;;;;;;;1.05;0.63;;;;;;;23.54;52.96;93343.91;6053500;23;20481;-94
2022/07/30 01:25:34;;;;;;;0.70;0.68;;;;;;;23.54;52.98;93344.63;6066864;23;20031;-95
2022/07/30 01:28:13;;;;;;;0.85;0.60;;;;;;;23.54;52.90;93341.88;6064636;23;20014;-96
2022/07/30 01:30:52;;;;;;;1.00;0.88;;;;;;;23.54;52.80;93344.63;6037982;23;20022;-95
2022/07/30 01:33:29;;;;;;;1.17;1.08;;;;;;;23.54;52.86;93336.34;6054734;23;20126;-94
2022/07/30 01:36:26;;;;;;;1.70;1.00;;;;;;;23.51;52.95;93342.94;6047794;23;20018;-94
2022/07/30 01:38:57;;;;;;;0.95;0.82;;;;;;;23.54;52.92;93341.13;6025938;23;20085;-94
2022/07/30 01:41:23;;;;;;;0.82;0.68;;;;;;;23.53;52.88;93345.91;6039925;23;20070;-96
2022/07/30 01:43:53;;;;;;;1.20;0.90;;;;;;;23.51;52.83;93340.19;6041146;23;20477;-95
2022/07/30 01:46:26;;;;;;;0.90;0.70;;;;;;;23.54;52.81;93339.13;6042201;23;20114;-95
2022/07/30 01:49:13;;;;;;;1.23;0.98;;;;;;;23.51;52.86;93328.41;5994702;23;20014;-94
2022/07/30 01:51:46;;;;;;;0.90;0.80;;;;;;;23.53;52.68;93328.63;6025669;23;20023;-94
2022/07/30 01:54:16;;;;;;;1.25;0.80;;;;;;;23.52;53.01;93329.91;6034599;23;20073;-96
2022/07/30 01:56:44;;;;;;;0.82;0.75;;;;;;;23.52;52.93;93321.63;6074144;23;20097;-95
2022/07/30 01:59:10;;;;;;;1.30;0.70;;;;;;;23.54;52.84;93324.56;6037798;23;20480;-95
2022/07/30 02:01:35;;;;;;;0.90;0.80;;;;;;;23.52;53.02;93321.63;6039599;23;20018;-94
2022/07/30 02:04:09;;;;;;;0.80;0.80;;;;;;;23.51;52.74;93331.16;6028285;23;20038;-95
2022/07/30 02:06:40;;;;;;;1.27;0.90;;;;;;;23.49;52.87;93328.94;6030804;23;20350;-96
2022/07/30 02:09:07;;;;;;;;;;;;;;;23.50;52.76;93318.66;6030042;23;20553;-95
2022/07/30 02:14:38;;;;;;;1.20;0.70;;;;;;;23.48;52.85;93324.72;6061507;23;20081;-95
2022/07/30 02:17:15;;;;;;;0.93;0.73;;;;;;;23.50;52.88;93324.16;6034421;23;20014;-95
2022/07/30 02:19:52;;;;;;;1.15;0.90;;;;;;;23.50;53.06;93324.16;6034975;23;20088;-94
2022/07/30 02:22:23;;;;;;;1.40;0.80;;;;;;;23.48;53.03;93330.22;6044141;23;20029;-96
2022/07/30 02:24:53;;;;;;;0.60;0.60;;;;;;;23.50;52.96;93337.97;6033515;23;20382;-95
2022/07/30 02:27:25;;;;;;;1.70;1.00;;;;;;;23.48;52.96;93321.94;6051784;23;20042;-95
2022/07/30 02:29:51;;;;;;;0.85;0.80;;;;;;;23.49;52.95;93331.69;6015434;23;20061;-94
2022/07/30 02:32:24;;;;;;;0.98;0.73;;;;;;;23.47;52.96;93328.75;6048825;23;20021;-94
2022/07/30 02:34:55;;;;;;;0.70;0.70;;;;;;;23.48;52.94;93327.47;6032202;23;20025;-94
2022/07/30 02:37:28;;;;;;;0.90;0.77;;;;;;;23.48;53.01;93321.22;6034531;23;20019;-95
2022/07/30 02:40:06;;;;;;;0.93;0.73;;;;;;;23.47;53.02;93316.97;6043715;23;20141;-95
2022/07/30 02:42:36;;;;;;;0.70;0.70;;;;;;;23.47;53.17;93317.72;6021047;23;20025;-95
2022/07/30 02:45:05;;;;;;;0.57;0.57;;;;;;;23.48;53.12;93319.19;6043314;23;20026;-95
2022/07/30 02:47:33;;;;;;;1.15;1.00;;;;;;;23.47;52.90;93317.72;6033323;23;20015;-95
2022/07/30 02:50:03;;;;;;;1.75;0.80;;;;;;;23.47;53.08;93309.44;6030729;23;20026;-95
2022/07/30 02:52:30;;;;;;;0.82;0.60;;;;;;;23.49;52.81;93308.88;6016229;23;20373;-94
2022/07/30 02:54:56;;;;;;;1.00;0.80;;;;;;;23.47;52.88;93303.91;6041105;23;20398;-94
2022/07/30 02:57:24;;;;;;;0.95;0.70;;;;;;;23.47;52.83;93303.91;6033658;23;20048;-95
2022/07/30 02:59:51;;;;;;;1.08;0.77;;;;;;;23.47;52.89;93309.44;6045426;23;20038;-94
2022/07/30 03:02:19;;;;;;;1.35;0.90;;;;;;;23.46;52.88;93302.44;6041980;23;20026;-96
2022/07/30 03:04:47;;;;;;;1.13;0.70;;;;;;;23.47;53.09;93309.44;6044876;23;20022;-94
2022/07/30 03:07:17;;;;;;;1.20;1.00;;;;;;;23.47;52.96;93311.47;6045075;23;20034;-95
2022/07/30 03:09:42;;;;;;;0.70;0.70;;;;;;;23.47;53.19;93303.19;6049059;23;20070;-94
2022/07/30 03:12:15;;;;;;;1.00;0.70;;;;;;;23.45;52.93;93308.50;6033298;23;20058;-94
2022/07/30 03:14:42;;;;;;;0.77;0.73;;;;;;;23.48;52.71;93308.16;6046890;23;20022;-94
2022/07/30 03:17:10;;;;;;;0.80;0.70;;;;;;;23.46;53.00;93307.22;6048404;23;20022;-94
2022/07/30 03:19:36;;;;;;;0.90;0.90;;;;;;;23.47;53.07;93312.19;6043364;23;20057;-94
2022/07/30 03:22:04;;;;;;;0.60;0.60;;;;;;;23.45;53.02;93309.25;6042630;23;20098;-94
2022/07/30 03:24:31;;;;;;;0.80;0.75;;;;;;;23.45;53.15;93314.75;6043992;23;20017;-95
2022/07/30 03:26:59;;;;;;;0.60;0.60;;;;;;;23.47;52.86;93303.19;6040116;23;20015;-95
2022/07/30 03:29:26;;;;;;;0.60;0.60;;;;;;;23.46;52.91;93313.47;6040903;23;20018;-95
2022/07/30 03:31:57;;;;;;;0.98;0.80;;;;;;;23.46;53.00;93315.50;6029959;23;20044;-94
2022/07/30 03:34:25;;;;;;;0.70;0.50;;;;;;;23.47;53.09;93312.19;6033814;23;20045;-94
2022/07/30 03:36:55;;;;;;;0.75;0.68;;;;;;;23.47;53.21;93316.97;6040742;23;20018;-95
2022/07/30 03:39:20;;;;;;;0.95;0.77;;;;;;;23.44;52.97;93320.81;6044604;23;20018;-94
2022/07/30 03:41:46;;;;;;;1.13;0.85;;;;;;;23.44;53.12;93324.31;6040271;23;20347;-94
2022/07/30 03:44:12;;;;;;;1.00;0.80;;;;;;;23.44;53.04;93318.81;6042473;23;20062;-94
2022/07/30 03:46:37;;;;;;;1.00;0.90;;;;;;;23.44;52.98;93321.56;6041133;23;20042;-95
2022/07/30 03:49:07;;;;;;;1.00;0.80;;;;;;;23.44;53.16;93326.34;6044527;23;20053;-95
2022/07/30 03:51:33;;;;;;;0.60;0.55;;;;;;;23.43;52.99;93320.09;6028273;23;20021;-94
2022/07/30 03:53:59;;;;;;;0.82;0.70;;;;;;;23.44;52.98;93327.06;6041575;23;20014;-94
2022/07/30 03:56:25;;;;;;;0.80;0.68;;;;;;;23.42;53.19;93321.38;6043250;23;20024;-95
2022/07/30 03:58:53;;;;;;;1.85;0.80;;;;;;;23.44;52.97;93326.34;6039574;23;20089;-94
2022/07/30 04:01:24;;;;;;;0.57;0.57;;;;;;;23.43;52.91;93325.59;6040974;23;20530;-94
2022/07/30 04:03:53;;;;;;;1.35;0.93;;;;;;;23.42;52.95;93323.38;6003796;23;20022;-95
2022/07/30 04:06:21;;;;;;;1.00;0.90;;;;;;;23.43;53.05;93325.59;6028141;23;20090;-94
2022/07/30 04:08:47;;;;;;;0.73;0.63;;;;;;;23.44;53.03;93323.59;6014402;23;20053;-94
2022/07/30 04:11:13;;;;;;;0.60;0.60;;;;;;;23.45;52.93;93331.31;6017443;23;20026;-96
2022/07/30 04:13:38;;;;;;;0.75;0.65;;;;;;;23.44;52.82;93334.63;6010840;23;20105;-94
2022/07/30 04:16:06;;;;;;;1.60;0.60;;;;;;;23.43;52.89;93333.88;6017492;23;20032;-94
2022/07/30 04:18:36;;;;;;;0.65;0.65;;;;;;;23.41;53.05;93327.44;6035386;23;20034;-94
2022/07/30 04:21:03;;;;;;;0.63;0.63;;;;;;;23.44;53.08;93329.84;6016029;23;20022;-94
2022/07/30 04:23:28;;;;;;;0.90;0.80;;;;;;;23.42;52.94;93335.16;6010163;23;21056;-95
2022/07/30 04:25:55;;;;;;;0.70;0.70;;;;;;;23.41;52.99;93328.16;6041034;23;20072;-95
2022/07/30 04:28:22;;;;;;;1.58;0.93;;;;;;;23.43;52.93;93330.38;6017500;23;20021;-94
2022/07/30 04:30:49;;;;;;;0.90;0.65;;;;;;;23.40;53.08;93329.44;6039855;23;20019;-95
2022/07/30 04:33:17;;;;;;;0.90;0.70;;;;;;;23.41;53.05;93333.69;6041188;23;20068;-94
2022/07/30 04:35:44;;;;;;;0.60;0.60;;;;;;;23.43;53.11;93335.91;6031626;23;20056;-94
2022/07/30 04:38:13;;;;;;;0.65;0.65;;;;;;;23.41;52.90;93338.47;6039677;23;20506;-94
2022/07/30 04:40:39;;;;;;;0.65;0.65;;;;;;;23.41;52.88;93339.19;6040128;23;20018;-94
2022/07/30 04:43:08;;;;;;;0.82;0.55;;;;;;;23.41;53.01;93341.97;6041594;23;20490;-94
2022/07/30 04:45:34;;;;;;;0.82;0.63;;;;;;;23.40;53.26;93340.47;6041961;23;20030;-95
2022/07/30 04:47:59;;;;;;;0.60;0.60;;;;;;;23.40;53.13;93342.50;6042459;23;20392;-94
2022/07/30 04:50:26;;;;;;;0.85;0.80;;;;;;;23.39;53.22;93346.53;6011504;23;20074;-95
2022/07/30 04:52:53;;;;;;;0.73;0.70;;;;;;;23.38;53.27;93348.59;5984061;23;20030;-94
2022/07/30 04:55:18;;;;;;;0.85;0.75;;;;;;;23.39;52.96;93352.06;5980217;23;20023;-95
2022/07/30 04:57:44;;;;;;;1.10;0.77;;;;;;;23.42;53.12;93348.94;5961512;23;20023;-95
2022/07/30 05:00:10;;;;;;;0.80;0.60;;;;;;;23.40;53.11;93351.53;5959207;23;20039;-95
2022/07/30 05:02:36;;;;;;;0.63;0.60;;;;;;;23.40;53.15;93350.78;5957997;23;20034;-94
2022/07/30 05:05:01;;;;;;;0.73;0.50;;;;;;;23.39;53.22;93346.53;5983856;23;20023;-94
2022/07/30 05:07:32;;;;;;;0.60;0.57;;;;;;;23.37;53.01;93354.66;5960447;23;20023;-94
2022/07/30 05:09:58;;;;;;;;;;;;;;;23.38;53.02;93343.06;5958803;23;20098;-94
2022/07/30 05:12:37;;;;;;;0.70;0.70;;;;;;;23.35;53.23;93346.91;6017437;23;19918;-94
2022/07/30 05:15:09;;;;;;;1.23;0.70;;;;;;;23.37;53.12;93347.13;6007114;23;20495;-95
2022/07/30 05:17:35;;;;;;;0.30;0.30;;;;;;;23.37;53.30;93346.38;5961337;23;20023;-95
2022/07/30 05:20:01;;;;;;;0.50;0.50;;;;;;;23.38;52.95;93354.09;5958935;23;20518;-96
2022/07/30 05:22:28;;;;;;;0.70;0.50;;;;;;;23.38;53.16;93354.09;6010418;23;20026;-94
2022/07/30 05:24:56;;;;;;;1.13;0.60;;;;;;;23.39;53.13;93352.06;6016235;23;20038;-96
2022/07/30 05:27:24;;;;;;;0.70;0.60;;;;;;;23.36;53.18;93350.41;6040216;23;20022;-94
2022/07/30 05:29:50;;;;;;;0.70;0.60;;;;;;;23.37;53.27;93357.41;6038468;23;20049;-94
2022/07/30 05:32:19;;;;;;;0.60;0.60;;;;;;;23.36;53.26;93362.19;6040058;23;20015;-95
2022/07/30 05:34:44;;;;;;;0.60;0.57;;;;;;;23.38;53.14;93361.66;6040281;23;20474;-94
2022/07/30 05:37:13;;;;;;;0.50;0.50;;;;;;;23.35;53.22;93357.94;6043213;23;20031;-95
2022/07/30 05:39:41;;;;;;;1.00;0.70;;;;;;;23.39;53.15;93354.81;6035592;23;20196;-94
2022/07/30 05:42:07;;;;;;;0.95;0.70;;;;;;;23.37;53.04;93355.38;6040619;23;20022;-96
2022/07/30 05:44:33;;;;;;;0.88;0.55;;;;;;;23.38;53.10;93353.38;6043413;23;20359;-95
2022/07/30 05:46:58;;;;;;;0.40;0.40;;;;;;;23.36;53.10;93348.41;6034927;23;20032;-95
2022/07/30 05:49:26;;;;;;;0.50;0.50;;;;;;;23.38;52.75;93353.38;6030323;23;20022;-94
2022/07/30 05:51:55;;;;;;;0.60;0.60;;;;;;;23.36;53.08;93351.16;6040114;23;20018;-94
2022/07/30 05:54:22;;;;;;;0.65;0.57;;;;;;;23.37;53.03;93347.13;6034415;23;20397;-95
2022/07/30 05:56:50;;;;;;;1.25;0.70;;;;;;;23.35;53.06;93357.94;6067682;23;20070;-94
2022/07/30 05:59:28;;;;;;;0.60;0.50;;;;;;;23.36;52.84;93348.41;6045230;23;20033;-94
2022/07/30 06:01:53;;;;;;;0.88;0.60;;;;;;;23.35;53.06;93360.72;6040828;23;20319;-94
2022/07/30 06:04:21;;;;;;;0.60;0.60;;;;;;;23.35;53.00;93363.47;6043841;23;20033;-94
2022/07/30 06:06:47;;;;;;;0.68;0.60;;;;;;;23.35;53.02;93366.22;6041474;23;20018;-94
2022/07/30 06:09:17;;;;;;;0.60;0.50;;;;;;;23.35;53.06;93362.72;6010448;23;20058;-94
2022/07/30 06:11:48;;;;;;;0.90;0.60;;;;;;;23.34;53.02;93372.28;5969995;23;20043;-95
2022/07/30 06:14:16;;;;;;;1.25;0.80;;;;;;;23.36;53.07;93378.00;5983703;23;20099;-96
2022/07/30 06:16:48;;;;;;;0.60;0.50;;;;;;;23.36;53.08;93370.47;6000864;23;20015;-94
2022/07/30 06:19:16;;;;;;;0.93;0.63;;;;;;;23.35;53.02;93382.03;5984997;23;20026;-95
2022/07/30 06:21:44;;;;;;;0.77;0.70;;;;;;;23.34;53.00;93378.53;6021893;23;20030;-95
2022/07/30 06:24:23;;;;;;;0.60;0.60;;;;;;;23.35;52.99;93371.75;6012169;23;20474;-95
2022/07/30 06:26:49;;;;;;;0.70;0.70;;;;;;;23.36;52.97;93375.97;6019789;23;20022;-95
2022/07/30 06:29:14;;;;;;;0.80;0.50;;;;;;;23.35;53.04;93373.75;6011263;23;20019;-95
2022/07/30 06:31:44;;;;;;;0.60;0.60;;;;;;;23.35;53.02;93380.03;5997929;23;20019;-95
2022/07/30 06:34:21;;;;;;;0.55;0.55;;;;;;;23.35;53.27;93373.75;6019472;23;20117;-95
2022/07/30 06:36:50;;;;;;;1.00;0.70;;;;;;;23.36;52.97;93383.53;6010646;23;20026;-95
2022/07/30 06:39:36;;;;;;;0.80;0.50;;;;;;;23.32;53.14;93377.59;6039626;23;20031;-95
2022/07/30 06:42:06;;;;;;;1.10;0.80;;;;;;;23.31;53.18;93382.38;6029941;23;20097;-95
2022/07/30 06:44:34;;;;;;;0.50;0.50;;;;;;;23.33;53.32;93382.59;6043314;23;20102;-95
2022/07/30 06:47:05;;;;;;;0.90;0.70;;;;;;;23.33;53.26;93381.84;5997301;23;20438;-94
2022/07/30 06:49:52;;;;;;;0.90;0.70;;;;;;;23.33;52.97;93384.59;6042426;23;20029;-95
2022/07/30 06:52:18;;;;;;;0.82;0.75;;;;;;;23.33;53.16;93390.13;6068488;23;20021;-95
2022/07/30 06:54:47;;;;;;;1.13;0.70;;;;;;;23.32;52.91;93389.38;6034568;23;20014;-95
2022/07/30 06:57:17;;;;;;;0.70;0.70;;;;;;;23.33;53.17;93390.84;6042877;23;20026;-95
2022/07/30 06:59:46;;;;;;;0.73;0.73;;;;;;;23.34;53.15;93386.81;6044406;23;20027;-96
2022/07/30 07:02:12;;;;;;;0.93;0.75;;;;;;;23.31;53.30;93387.16;6034281;23;20014;-96
2022/07/30 07:05:00;;;;;;;1.58;0.90;;;;;;;23.28;53.24;93386.22;6034816;23;20018;-95
2022/07/30 07:07:28;;;;;;;1.77;1.10;;;;;;;23.31;53.13;93387.16;6012373;23;20026;-95
2022/07/30 07:09:58;;;;;;;3.75;1.35;;;;;;;23.24;53.35;93374.81;6026946;23;20117;-95
2022/07/30 07:12:23;;;;;;;5.32;1.83;;;;;;;23.28;53.24;93380.72;6051719;23;20018;-96
2022/07/30 07:14:49;;;;;;;41.67;7.90;;;;;;;23.28;53.34;93383.47;6053185;23;20022;-95
2022/07/30 07:17:14;;;;;;;37.13;8.48;;;;;;;23.20;53.44;93380.66;6030380;23;20074;-95
2022/07/30 07:19:40;;;;;;;39.88;8.85;;;;;;;23.19;53.63;93365.38;6047399;23;20018;-95
2022/07/30 07:22:09;;;;;;;25.60;8.23;;;;;;;23.16;53.58;93363.00;6043058;23;20324;-94
2022/07/30 07:24:37;;;;;;;25.85;8.90;;;;;;;23.13;54.11;93372.38;6037097;23;20020;-95
2022/07/30 07:27:06;;;;;;;35.15;9.13;;;;;;;23.13;53.98;93362.06;6046050;23;20033;-95
2022/07/30 07:29:31;;;;;;;29.98;8.65;;;;;;;23.18;53.88;93363.19;6041979;23;20351;-95
2022/07/30 07:31:57;;;;;;;31.88;8.80;;;;;;;23.12;54.31;93357.09;6041231;23;20010;-94
2022/07/30 07:34:22;;;;;;;17.80;7.82;;;;;;;23.15;54.05;93362.28;6034844;23;20014;-94
2022/07/30 07:36:51;;;;;;;40.42;9.23;;;;;;;23.16;54.39;93354.75;6043014;23;20029;-94
2022/07/30 07:39:16;;;;;;;37.78;16.00;;;;;;;23.12;54.20;93368.88;6045118;23;20015;-94
2022/07/30 07:41:42;;;;;;;41.45;20.90;;;;;;;23.08;54.45;93370.50;6042718;23;20015;-94
2022/07/30 07:44:07;;;;;;;26.85;16.17;;;;;;;23.01;55.20;93365.66;6029994;23;20074;-94
2022/07/30 07:46:33;;;;;;;45.22;24.40;;;;;;;23.03;54.74;93371.38;6013975;23;20035;-94
2022/07/30 07:49:01;;;;;;;49.45;27.08;;;;;;;22.95;55.37;93354.78;6023791;23;20025;-94
2022/07/30 07:51:26;;;;;;;61.17;35.33;;;;;;;22.93;55.07;93373.16;6041856;23;20338;-96
2022/07/30 07:53:52;;;;;;;47.42;30.08;;;;;;;22.95;55.18;93368.56;6032287;23;20026;-94
2022/07/30 07:56:17;;;;;;;41.50;24.83;;;;;;;22.95;55.61;93363.03;6039835;23;20078;-94
2022/07/30 07:58:43;;;;;;;43.08;27.00;;;;;;;22.90;55.76;93364.69;6024258;23;20152;-95
2022/07/30 08:01:08;;;;;;;42.78;26.23;;;;;;;22.83;55.57;93370.88;6043259;23;20018;-94
2022/07/30 08:03:34;;;;;;;41.22;25.00;;;;;;;22.85;55.29;93362.81;6028288;23;20022;-95
2022/07/30 08:06:00;;;;;;;37.95;23.02;;;;;;;22.87;55.49;93365.03;6031527;23;20018;-94
2022/07/30 08:08:26;;;;;;;30.60;21.05;;;;;;;22.88;55.52;93361.72;6029948;23;20343;-94
2022/07/30 08:10:51;;;;;;;30.42;19.42;;;;;;;22.91;55.75;93376.47;5977300;23;20495;-94
2022/07/30 08:13:17;;;;;;;25.05;19.02;;;;;;;22.89;55.54;93365.97;5946976;24;20111;-94
2022/07/30 08:15:42;;;;;;;25.95;17.70;;;;;;;22.90;55.60;93377.72;5905624;24;20029;-94
2022/07/30 08:18:09;;;;;;;24.10;17.25;;;;;;;22.94;55.60;93385.66;5921752;24;20399;-95
2022/07/30 08:20:38;;;;;;;20.63;15.80;;;;;;;22.89;55.72;93382.50;5915170;24;20104;-95
2022/07/30 08:23:04;;;;;;;22.65;16.92;;;;;;;22.94;55.55;93380.16;5946631;23;20032;-95
2022/07/30 08:25:30;;;;;;;20.60;17.15;;;;;;;22.84;55.93;93372.34;5943191;24;20025;-94
2022/07/30 08:27:55;;;;;;;23.10;18.15;;;;;;;22.94;56.11;93377.41;5932941;23;20029;-94
2022/07/30 08:30:21;;;;;;;30.95;19.13;;;;;;;22.89;55.94;93384.53;5951526;24;20053;-94
2022/07/30 08:32:46;;;;;;;29.13;18.25;;;;;;;22.91;55.86;93379.22;5910690;23;20009;-92
2022/07/30 08:35:12;;;;;;;23.67;17.52;;;;;;;22.92;55.94;93377.19;5947655;24;20024;-94
2022/07/30 08:37:41;;;;;;;22.75;16.40;;;;;;;22.83;56.01;93383.91;5946141;24;20055;-94
2022/07/30 08:40:10;;;;;;;19.17;15.18;;;;;;;22.88;55.97;93378.28;5885910;24;20611;-94
2022/07/30 08:42:35;;;;;;;21.23;16.33;;;;;;;22.88;55.79;93377.53;5986438;23;20518;-94
2022/07/30 08:45:01;;;;;;;22.52;16.90;;;;;;;22.88;55.85;93369.25;6022939;23;20014;-93
2022/07/30 08:47:31;;;;;;;21.40;15.63;;;;;;;22.87;55.93;93371.28;6040201;23;20034;-93
2022/07/30 08:50:06;;;;;;;20.25;15.98;;;;;;;22.83;56.07;93375.66;6027291;23;20081;-94
2022/07/30 08:52:32;;;;;;;27.73;17.10;;;;;;;22.90;55.96;93378.47;6034780;23;20020;-94
2022/07/30 08:54:58;;;;;;;26.92;19.73;;;;;;;22.86;56.04;93378.06;6042559;23;20475;-95
2022/07/30 08:57:27;;;;;;;33.42;20.05;;;;;;;22.89;56.02;93385.25;6038592;23;20018;-94
2022/07/30 08:59:52;;;;;;;27.00;18.45;;;;;;;22.82;55.92;93383.19;6030438;23;20014;-95
2022/07/30 09:02:20;;;;;;;28.92;18.80;;;;;;;22.81;55.96;93389.97;6040812;23;20034;-95
2022/07/30 09:04:46;;;;;;;28.30;18.13;;;;;;;22.78;56.08;93387.56;6040651;23;20041;-93
2022/07/30 09:07:16;;;;;;;29.90;18.70;;;;;;;22.80;56.09;93390.50;6037490;23;20366;-95
2022/07/30 09:09:48;;;;;;;37.08;19.27;;;;;;;22.80;55.95;93399.53;6039205;23;20029;-94
2022/07/30 09:12:33;;;;;;;29.98;17.60;;;;;;;22.81;55.87;93394.75;6025424;23;20089;-95
2022/07/30 09:15:14;;;;;;;32.80;17.35;;;;;;;22.81;55.80;93389.25;6034883;23;20022;-94
2022/07/30 09:18:02;;;;;;;31.40;17.23;;;;;;;22.79;55.97;93392.53;6116923;23;20030;-94
2022/07/30 09:21:15;;;;;;;29.20;18.15;;;;;;;22.84;56.05;93393.66;6045024;23;20030;-94
2022/07/30 09:23:56;;;;;;;153.57;136.75;;;;;;;22.83;56.33;93386.69;5979882;23;20022;-95
2022/07/30 09:26:32;;;;;;;25.40;16.33;;;;;;;22.88;55.97;93386.53;6070474;23;20389;-95
2022/07/30 09:29:18;;;;;;;26.10;17.40;;;;;;;22.85;55.91;93393.13;6041197;23;20018;-93
2022/07/30 09:32:10;;;;;;;27.40;16.50;;;;;;;22.88;56.07;93392.06;6043288;23;20022;-93
2022/07/30 09:34:38;;;;;;;24.20;15.20;;;;;;;22.89;56.22;93392.78;6036110;23;20018;-93
2022/07/30 09:37:09;;;;;;;16.67;13.52;;;;;;;22.86;56.40;93397.38;6039100;23;20070;-94
2022/07/30 09:39:37;;;;;;;222.13;185.45;;;;;;;22.85;56.55;93390.38;5998518;23;20066;-94
2022/07/30 09:42:08;;;;;;;23.73;18.98;;;;;;;22.92;56.14;93405.50;6005249;23;20029;-95
2022/07/30 09:44:34;;;;;;;21.75;17.05;;;;;;;22.86;56.47;93400.13;5993057;23;20019;-94
2022/07/30 09:47:01;;;;;;;17.35;14.40;;;;;;;22.89;56.51;93395.56;6005709;23;20023;-94
2022/07/30 09:49:27;;;;;;;16.17;14.35;;;;;;;22.92;56.18;93388.97;6008571;23;20015;-93
2022/07/30 09:51:56;;;;;;;22.63;14.18;;;;;;;22.90;56.37;93392.25;6011594;23;20038;-93
2022/07/30 09:54:21;;;;;;;20.08;14.88;;;;;;;22.83;56.88;93390.19;6035146;23;20106;-93
2022/07/30 09:56:47;;;;;;;25.33;14.52;;;;;;;22.83;56.51;93392.19;6011884;23;20046;-90
2022/07/30 09:59:26;;;;;;;21.50;13.43;;;;;;;22.84;56.63;93390.91;6031901;23;20027;-93
2022/07/30 10:01:52;;;;;;;25.75;15.05;;;;;;;22.79;56.74;93389.78;6007936;23;20022;-94
2022/07/30 10:04:28;;;;;;;22.80;16.17;;;;;;;22.85;56.55;93389.63;5999745;23;20553;-94
2022/07/30 10:06:54;;;;;;;23.33;13.52;;;;;;;22.85;56.53;93390.38;6008671;23;20034;-93
2022/07/30 10:09:29;;;;;;;21.17;15.18;;;;;;;22.84;56.43;93391.66;5983236;23;20022;-93
2022/07/30 10:11:55;;;;;;;17.90;14.35;;;;;;;22.78;56.55;93382.78;6061025;23;20051;-94
2022/07/30 10:14:22;;;;;;;20.40;14.88;;;;;;;22.81;56.40;93392.72;6040837;23;20390;-94
2022/07/30 10:16:49;;;;;;;20.27;15.27;;;;;;;22.82;56.41;93387.97;6039059;23;20018;-94
2022/07/30 10:19:14;;;;;;;20.85;15.18;;;;;;;22.83;56.29;93381.16;6039366;23;20029;-93
2022/07/30 10:21:40;;;;;;;23.73;14.68;;;;;;;22.85;56.38;93382.09;6036741;23;20014;-93
2022/07/30 10:24:05;;;;;;;20.20;14.43;;;;;;;22.88;56.14;93391.31;6010812;23;20078;-94
2022/07/30 10:26:35;;;;;;;18.85;14.23;;;;;;;22.89;56.10;93385.25;5988197;23;20097;-95
2022/07/30 10:29:00;;;;;;;18.20;15.50;;;;;;;22.92;56.20;93386.19;5986034;23;20088;-94
2022/07/30 10:31:26;;;;;;;17.13;15.13;;;;;;;22.93;56.31;93382.16;5989242;23;20022;-93
2022/07/30 10:33:51;;;;;;;18.17;14.57;;;;;;;22.96;56.15;93377.56;5987343;23;20033;-94
2022/07/30 10:36:17;;;;;;;18.52;14.95;;;;;;;22.99;56.07;93379.25;5988752;23;20078;-94
2022/07/30 10:38:43;;;;;;;16.70;14.90;;;;;;;22.98;56.09;93366.75;5986673;23;20015;-95
2022/07/30 10:41:34;;;;;;;20.23;14.77;;;;;;;22.99;56.00;93366.19;5990880;23;20095;-93
2022/07/30 10:44:11;;;;;;;17.35;14.82;;;;;;;23.01;55.95;93362.91;6012067;23;20455;-93
2022/07/30 10:46:45;;;;;;;16.98;15.15;;;;;;;23.02;55.79;93358.88;6009584;23;20494;-93
2022/07/30 10:49:11;;;;;;;16.63;14.40;;;;;;;23.03;55.82;93369.34;5985685;23;20344;-96
2022/07/30 10:51:49;;;;;;;16.52;14.07;;;;;;;23.02;55.80;93359.59;5961008;23;20116;-94
2022/07/30 10:54:32;;;;;;;16.52;14.32;;;;;;;23.06;55.53;93362.75;5991505;23;20030;-94
2022/07/30 10:57:18;;;;;;;19.60;14.65;;;;;;;23.06;55.54;93371.03;6064675;23;20020;-96
2022/07/30 10:59:56;;;;;;;16.13;13.20;;;;;;;23.08;55.52;93367.72;6010029;23;20025;-93
2022/07/30 11:02:22;;;;;;;14.52;12.80;;;;;;;23.08;55.46;93364.97;6060032;23;20029;-95
2022/07/30 11:04:47;;;;;;;15.32;12.20;;;;;;;23.08;55.41;93365.72;5989307;23;20019;-94
2022/07/30 11:07:26;;;;;;;16.58;12.75;;;;;;;23.09;55.66;93369.94;5989630;23;20483;-93
2022/07/30 11:09:56;;;;;;;14.73;12.35;;;;;;;23.10;55.47;93363.16;6042949;23;20074;-93
2022/07/30 11:12:40;;;;;;;13.70;12.17;;;;;;;23.11;55.42;93361.88;5984589;23;20177;-93
2022/07/30 11:15:07;;;;;;;17.05;12.73;;;;;;;23.13;55.42;93378.63;6054389;23;20051;-95
2022/07/30 11:18:08;;;;;;;14.82;12.27;;;;;;;23.13;55.49;93375.13;5982451;23;20023;-93
2022/07/30 11:20:34;;;;;;;16.30;12.52;;;;;;;23.14;55.23;93374.59;6033795;23;20079;-93
2022/07/30 11:23:19;;;;;;;15.85;12.10;;;;;;;23.13;55.31;93367.59;6051172;23;20035;-94
2022/07/30 11:25:46;;;;;;;14.68;12.18;;;;;;;23.17;55.08;93364.47;6063294;23;20097;-94
2022/07/30 11:28:35;;;;;;;17.55;12.65;;;;;;;23.14;55.31;93363.56;6041908;23;20034;-93
2022/07/30 11:31:01;;;;;;;14.95;11.35;;;;;;;23.16;55.11;93361.00;6063829;23;20018;-94
2022/07/30 11:33:26;;;;;;;13.23;11.85;;;;;;;23.17;55.11;93356.91;6042047;23;20018;-94
2022/07/30 11:36:09;;;;;;;13.13;11.77;;;;;;;23.17;55.04;93345.16;6041596;23;20025;-93
2022/07/30 11:38:51;;;;;;;16.08;11.10;;;;;;;23.18;55.38;93344.63;6039329;23;20071;-94
2022/07/30 11:41:16;;;;;;;12.00;10.43;;;;;;;23.19;55.15;93365.38;6066241;23;20033;-95
2022/07/30 11:43:42;;;;;;;17.00;11.30;;;;;;;23.22;55.03;93364.31;6020341;23;20010;-93